Time;durP1;ratioP1;P1;durP2;ratioP2;P2;SDS_P1;SDS_P2;PMS_P1;PMS_P2;Temp;Humidity;BMP_temperature;BMP_pressure;BME280_temperature;BME280_humidity;BME280_pressure;Samples;Min_cycle;Max_cycle;Signal;HPM_P1;HPM_P2
2022/10/23 00:02:20;;;;;;;;;;;18.10;99.90;;;;;;5114361;28;19908;-23
2022/10/23 00:04:48;;;;;;;;;;;18.10;99.90;;;;;;5114202;28;20333;-24
2022/10/23 00:07:14;;;;;;;;;;;18.10;99.90;;;;;;5114140;28;20010;-23
2022/10/23 00:09:39;;;;;;;;;;;18.10;99.90;;;;;;5114257;28;19978;-24
2022/10/23 00:12:05;;;;;;;;;;;18.10;99.90;;;;;;5114067;28;20012;-24
2022/10/23 00:14:30;;;;;;;;;;;18.10;99.90;;;;;;5113924;28;19918;-24
2022/10/23 00:16:56;;;;;;;;;;;18.10;99.90;;;;;;5114136;28;19955;-24
2022/10/23 00:19:21;;;;;;;;;;;18.10;99.90;;;;;;5114090;28;19961;-24
2022/10/23 00:21:47;;;;;;;;;;;18.10;99.90;;;;;;5113763;28;20478;-23
2022/10/23 00:24:12;;;;;;;;;;;18.10;99.90;;;;;;5113711;28;19915;-24
2022/10/23 00:26:39;;;;;;;;;;;18.10;99.90;;;;;;5113920;28;19915;-24
2022/10/23 00:29:05;;;;;;;;;;;18.10;99.90;;;;;;5112386;28;20019;-24
2022/10/23 00:31:30;;;;;;;;;;;18.10;99.90;;;;;;5113652;28;20078;-23
2022/10/23 00:33:56;;;;;;;;;;;18.10;99.90;;;;;;5113461;28;19951;-24
2022/10/23 00:36:21;;;;;;;;;;;18.10;99.90;;;;;;5113602;28;20021;-24
2022/10/23 00:38:47;;;;;;;;;;;18.10;99.90;;;;;;5113590;28;20387;-24
2022/10/23 00:41:18;;;;;;;;;;;18.10;99.90;;;;;;5113718;28;20308;-24
2022/10/23 00:43:55;;;;;;;;;;;18.00;99.90;;;;;;5113312;28;19908;-24
2022/10/23 00:46:21;;;;;;;;;;;18.00;99.90;;;;;;5113417;28;19918;-24
2022/10/23 00:48:46;;;;;;;;;;;18.00;99.90;;;;;;5113930;28;19907;-23
2022/10/23 00:51:12;;;;;;;;;;;18.00;99.90;;;;;;5113451;28;19908;-23
2022/10/23 00:53:38;;;;;;;;;;;18.00;99.90;;;;;;5113175;28;19911;-23
2022/10/23 00:56:04;;;;;;;;;;;18.00;99.90;;;;;;5113344;28;19908;-23
2022/10/23 00:58:29;;;;;;;;;;;18.00;99.90;;;;;;5113283;28;19960;-23
2022/10/23 01:00:55;;;;;;;;;;;18.00;99.90;;;;;;5111954;28;19911;-24
2022/10/23 01:03:24;;;;;;;;;;;18.00;99.90;;;;;;5112985;28;20377;-24
2022/10/23 01:05:56;;;;;;;;;;;18.00;99.90;;;;;;5112216;28;20372;-24
2022/10/23 01:08:26;;;;;;;;;;;18.00;99.90;;;;;;5112430;28;19912;-23
2022/10/23 01:10:56;;;;;;;;;;;18.00;99.90;;;;;;5113330;28;19912;-23
2022/10/23 01:13:21;;;;;;;;;;;18.00;99.90;;;;;;5112756;28;20002;-23
2022/10/23 01:16:00;;;;;;;;;;;18.00;99.90;;;;;;5113262;28;19946;-24
2022/10/23 01:18:36;;;;;;;;;;;18.00;99.90;;;;;;5112979;28;19908;-23
2022/10/23 01:21:14;;;;;;;;;;;18.00;99.90;;;;;;5113116;28;19911;-23
2022/10/23 01:23:58;;;;;;;;;;;18.00;99.90;;;;;;5112584;28;20386;-23
2022/10/23 01:26:35;;;;;;;;;;;18.00;99.90;;;;;;5112916;28;19938;-23
2022/10/23 01:29:07;;;;;;;;;;;17.90;99.90;;;;;;5118539;28;19908;-24
2022/10/23 01:31:36;;;;;;;;;;;18.00;99.90;;;;;;5115138;28;20457;-23
2022/10/23 01:34:16;;;;;;;;;;;17.90;99.90;;;;;;5112499;28;20409;-24
2022/10/23 01:36:44;;;;;;;;;;;17.90;99.90;;;;;;5112817;28;19907;-23
2022/10/23 01:39:13;;;;;;;;;;;17.90;99.90;;;;;;5112988;28;19908;-23
2022/10/23 01:41:42;;;;;;;;;;;17.90;99.90;;;;;;5112541;28;19937;-23
2022/10/23 01:44:10;;;;;;;;;;;17.90;99.90;;;;;;5112549;28;19914;-23
2022/10/23 01:46:36;;;;;;;;;;;17.90;99.90;;;;;;5112812;28;19908;-23
2022/10/23 01:49:03;;;;;;;;;;;17.90;99.90;;;;;;5112294;28;19908;-23
2022/10/23 01:51:30;;;;;;;;;;;17.90;99.90;;;;;;5112217;28;19912;-23
2022/10/23 01:53:57;;;;;;;;;;;17.90;99.90;;;;;;5112075;28;19912;-23
2022/10/23 01:56:26;;;;;;;;;;;17.90;99.90;;;;;;5112708;28;19957;-23
2022/10/23 01:58:52;;;;;;;;;;;17.90;99.90;;;;;;5112354;28;19907;-23
2022/10/23 02:01:20;;;;;;;;;;;17.90;99.90;;;;;;5112450;28;19933;-23
2022/10/23 02:03:46;;;;;;;;;;;17.90;99.90;;;;;;5111908;28;19908;-24
2022/10/23 02:06:11;;;;;;;;;;;17.90;99.90;;;;;;5110838;28;20272;-24
2022/10/23 02:08:37;;;;;;;;;;;17.90;99.90;;;;;;5112182;28;19908;-24
2022/10/23 02:11:13;;;;;;;;;;;17.90;99.90;;;;;;5112186;28;19912;-23
2022/10/23 02:13:42;;;;;;;;;;;17.80;99.90;;;;;;5111783;28;19919;-23
2022/10/23 02:16:15;;;;;;;;;;;17.80;99.90;;;;;;5112007;28;19942;-23
2022/10/23 02:18:59;;;;;;;;;;;17.80;99.90;;;;;;5111810;28;20288;-23
2022/10/23 02:21:27;;;;;;;;;;;17.80;99.90;;;;;;5112296;28;19908;-23
2022/10/23 02:24:04;;;;;;;;;;;17.90;99.90;;;;;;5111796;28;19919;-23
2022/10/23 02:26:33;;;;;;;;;;;17.80;99.90;;;;;;5111954;28;19908;-23
2022/10/23 02:29:08;;;;;;;;;;;17.80;99.90;;;;;;5111660;28;20257;-23
2022/10/23 02:31:33;;;;;;;;;;;17.80;99.90;;;;;;5111782;28;19916;-23
2022/10/23 02:33:59;;;;;;;;;;;17.80;99.90;;;;;;5111568;28;19918;-23
2022/10/23 02:36:24;;;;;;;;;;;17.80;99.90;;;;;;5111711;28;19946;-24
2022/10/23 02:38:50;;;;;;;;;;;17.80;99.90;;;;;;5111811;28;19915;-24
2022/10/23 02:41:21;;;;;;;;;;;17.80;99.90;;;;;;5111687;28;19908;-24
2022/10/23 02:43:50;;;;;;;;;;;17.80;99.90;;;;;;5111581;28;19995;-23
2022/10/23 02:46:24;;;;;;;;;;;17.80;99.90;;;;;;5111959;28;19908;-23
2022/10/23 02:48:54;;;;;;;;;;;17.80;99.90;;;;;;5111695;28;19907;-23
2022/10/23 02:51:19;;;;;;;;;;;17.70;99.90;;;;;;5111629;28;19908;-23
2022/10/23 02:53:45;;;;;;;;;;;17.80;99.90;;;;;;5111358;28;20352;-23
2022/10/23 02:56:10;;;;;;;;;;;17.80;99.90;;;;;;5110179;28;20033;-23
2022/10/23 02:58:55;;;;;;;;;;;17.80;99.90;;;;;;5111360;28;19915;-23
2022/10/23 03:01:25;;;;;;;;;;;17.80;99.90;;;;;;5111321;28;20312;-23
2022/10/23 03:04:01;;;;;;;;;;;17.70;99.90;;;;;;5110884;28;19907;-23
2022/10/23 03:06:27;;;;;;;;;;;17.70;99.90;;;;;;5111333;28;19962;-23
2022/10/23 03:09:03;;;;;;;;;;;17.80;99.90;;;;;;5111464;28;20405;-23
2022/10/23 03:11:28;;;;;;;;;;;17.70;99.90;;;;;;5111526;28;19915;-23
2022/10/23 03:13:54;;;;;;;;;;;17.70;99.90;;;;;;5110868;28;20002;-23
2022/10/23 03:16:20;;;;;;;;;;;17.70;99.90;;;;;;5111242;28;20360;-23
2022/10/23 03:18:46;;;;;;;;;;;17.70;99.90;;;;;;5111297;28;19908;-23
2022/10/23 03:21:11;;;;;;;;;;;17.70;99.90;;;;;;5111252;28;19912;-23
2022/10/23 03:23:37;;;;;;;;;;;17.70;99.90;;;;;;5110894;28;20280;-23
2022/10/23 03:26:03;;;;;;;;;;;17.70;99.90;;;;;;5111027;28;19912;-23
2022/10/23 03:28:28;;;;;;;;;;;17.70;99.90;;;;;;5111143;28;19908;-23
2022/10/23 03:30:54;;;;;;;;;;;17.70;99.90;;;;;;5111419;28;19919;-23
2022/10/23 03:33:20;;;;;;;;;;;17.70;99.90;;;;;;5114180;28;19912;-23
2022/10/23 03:35:47;;;;;;;;;;;17.70;99.90;;;;;;5114670;28;19931;-23
2022/10/23 03:38:12;;;;;;;;;;;17.70;99.90;;;;;;5114555;28;20412;-23
2022/10/23 03:40:38;;;;;;;;;;;17.70;99.90;;;;;;5114808;28;19915;-23
2022/10/23 03:43:04;;;;;;;;;;;17.70;99.90;;;;;;5114363;28;19911;-23
2022/10/23 03:45:31;;;;;;;;;;;17.70;99.90;;;;;;5114615;28;19931;-23
2022/10/23 03:47:57;;;;;;;;;;;17.70;99.90;;;;;;5112950;28;19908;-23
2022/10/23 03:50:22;;;;;;;;;;;17.70;99.90;;;;;;5114783;28;19916;-23
2022/10/23 03:52:48;;;;;;;;;;;17.70;99.90;;;;;;5114208;28;19912;-23
2022/10/23 03:55:14;;;;;;;;;;;17.60;99.90;;;;;;5114598;28;19920;-23
2022/10/23 03:57:39;;;;;;;;;;;17.70;99.90;;;;;;5114314;28;19915;-23
2022/10/23 04:00:05;;;;;;;;;;;17.60;99.90;;;;;;5114129;28;19907;-23
2022/10/23 04:02:30;;;;;;;;;;;17.60;99.90;;;;;;5113680;28;19912;-23
2022/10/23 04:04:56;;;;;;;;;;;17.60;99.90;;;;;;5114758;28;19987;-23
2022/10/23 04:07:22;;;;;;;;;;;17.60;99.90;;;;;;5114101;28;19991;-23
2022/10/23 04:09:47;;;;;;;;;;;17.60;99.90;;;;;;5114038;28;20288;-23
2022/10/23 04:12:13;;;;;;;;;;;17.60;99.90;;;;;;5114078;28;19985;-23
2022/10/23 04:14:38;;;;;;;;;;;17.60;99.90;;;;;;5113604;28;19998;-23
2022/10/23 04:17:04;;;;;;;;;;;17.60;99.90;;;;;;5114085;28;20372;-23
2022/10/23 04:19:30;;;;;;;;;;;17.60;99.90;;;;;;5113932;28;19915;-23
2022/10/23 04:21:56;;;;;;;;;;;17.60;99.90;;;;;;5113835;28;19914;-23
2022/10/23 04:24:22;;;;;;;;;;;17.60;99.90;;;;;;5113453;28;19907;-23
2022/10/23 04:26:47;;;;;;;;;;;17.60;99.90;;;;;;5113643;28;19972;-23
2022/10/23 04:29:13;;;;;;;;;;;17.60;99.90;;;;;;5113645;28;19911;-23
2022/10/23 04:31:38;;;;;;;;;;;17.60;99.90;;;;;;5113368;28;19916;-23
2022/10/23 04:34:04;;;;;;;;;;;17.60;99.90;;;;;;5113095;28;19970;-23
2022/10/23 04:36:29;;;;;;;;;;;17.60;99.90;;;;;;5114185;28;19915;-23
2022/10/23 04:38:55;;;;;;;;;;;17.60;99.90;;;;;;5112271;28;19908;-24
2022/10/23 04:41:20;;;;;;;;;;;17.60;99.90;;;;;;5113380;28;19908;-24
2022/10/23 04:43:46;;;;;;;;;;;17.50;99.90;;;;;;5111642;28;19908;-24
2022/10/23 04:46:11;;;;;;;;;;;17.60;99.90;;;;;;5113436;28;19908;-24
2022/10/23 04:48:37;;;;;;;;;;;17.50;99.90;;;;;;5113524;28;19912;-24
2022/10/23 04:51:04;;;;;;;;;;;17.50;99.90;;;;;;5113611;28;19912;-23
2022/10/23 04:53:30;;;;;;;;;;;17.50;99.90;;;;;;5112900;28;19963;-23
2022/10/23 04:55:56;;;;;;;;;;;17.50;99.90;;;;;;5111890;28;19912;-23
2022/10/23 04:58:22;;;;;;;;;;;17.50;99.90;;;;;;5113530;28;19907;-23
2022/10/23 05:00:47;;;;;;;;;;;17.50;99.90;;;;;;5113513;28;20364;-23
2022/10/23 05:03:14;;;;;;;;;;;17.50;99.90;;;;;;5113127;28;19915;-23
2022/10/23 05:05:40;;;;;;;;;;;17.50;99.90;;;;;;5111763;28;19912;-23
2022/10/23 05:08:06;;;;;;;;;;;17.50;99.90;;;;;;5112848;28;20467;-23
2022/10/23 05:10:31;;;;;;;;;;;17.50;99.90;;;;;;5112918;28;20006;-23
2022/10/23 05:12:57;;;;;;;;;;;17.50;99.90;;;;;;5112387;28;19908;-23
2022/10/23 05:15:22;;;;;;;;;;;17.50;99.90;;;;;;5112695;28;19958;-23
2022/10/23 05:17:51;;;;;;;;;;;17.50;99.90;;;;;;5112544;28;20369;-23
2022/10/23 05:20:18;;;;;;;;;;;17.50;99.90;;;;;;5112582;28;20211;-23
2022/10/23 05:22:44;;;;;;;;;;;17.50;99.90;;;;;;5112445;28;19941;-23
2022/10/23 05:25:11;;;;;;;;;;;17.50;99.90;;;;;;5112497;28;20417;-23
2022/10/23 05:27:36;;;;;;;;;;;17.50;99.90;;;;;;5112961;28;20011;-23
2022/10/23 05:30:03;;;;;;;;;;;17.50;99.90;;;;;;5112106;28;19998;-23
2022/10/23 05:32:29;;;;;;;;;;;17.40;99.90;;;;;;5112488;28;19913;-23
2022/10/23 05:34:55;;;;;;;;;;;17.50;99.90;;;;;;5112627;28;19911;-23
2022/10/23 05:37:20;;;;;;;;;;;17.50;99.90;;;;;;5112357;28;20061;-23
2022/10/23 05:39:46;;;;;;;;;;;17.40;99.90;;;;;;5112338;28;19943;-23
2022/10/23 05:42:11;;;;;;;;;;;17.50;99.90;;;;;;5112178;28;20275;-23
2022/10/23 05:44:37;;;;;;;;;;;17.40;99.90;;;;;;5111739;28;19968;-23
2022/10/23 05:47:03;;;;;;;;;;;17.40;99.90;;;;;;5112176;28;19971;-23
2022/10/23 05:49:28;;;;;;;;;;;17.40;99.90;;;;;;5112817;28;20388;-23
2022/10/23 05:51:54;;;;;;;;;;;17.40;99.90;;;;;;5110808;28;20367;-23
2022/10/23 05:54:19;;;;;;;;;;;17.40;99.90;;;;;;5111341;28;20052;-23
2022/10/23 05:56:45;;;;;;;;;;;17.40;99.90;;;;;;5112074;28;19968;-23
2022/10/23 05:59:10;;;;;;;;;;;17.40;99.90;;;;;;5112198;28;20454;-24
2022/10/23 06:01:36;;;;;;;;;;;17.40;99.90;;;;;;5112057;28;20421;-23
2022/10/23 06:04:02;;;;;;;;;;;17.40;99.90;;;;;;5111730;28;20061;-23
2022/10/23 06:06:28;;;;;;;;;;;17.40;99.90;;;;;;5112291;28;19964;-23
2022/10/23 06:08:53;;;;;;;;;;;17.40;99.90;;;;;;5111785;28;19908;-23
2022/10/23 06:11:19;;;;;;;;;;;17.40;99.90;;;;;;5111799;28;19915;-23
2022/10/23 06:13:45;;;;;;;;;;;17.40;99.90;;;;;;5111220;28;19918;-23
2022/10/23 06:16:21;;;;;;;;;;;17.40;99.90;;;;;;5111848;28;19947;-23
2022/10/23 06:18:47;;;;;;;;;;;17.40;99.90;;;;;;5111626;28;20369;-23
2022/10/23 06:21:13;;;;;;;;;;;17.40;99.90;;;;;;5111731;28;19908;-23
2022/10/23 06:23:39;;;;;;;;;;;17.30;99.90;;;;;;5111278;28;19933;-23
2022/10/23 06:26:06;;;;;;;;;;;17.30;99.90;;;;;;5111867;28;19994;-23
2022/10/23 06:28:31;;;;;;;;;;;17.30;99.90;;;;;;5111568;28;19908;-23
2022/10/23 06:30:57;;;;;;;;;;;17.30;99.90;;;;;;5111628;28;19916;-23
2022/10/23 06:33:25;;;;;;;;;;;17.30;99.90;;;;;;5111144;28;19912;-23
2022/10/23 06:35:54;;;;;;;;;;;17.30;99.90;;;;;;5111624;28;19953;-23
2022/10/23 06:38:19;;;;;;;;;;;17.30;99.90;;;;;;5111524;28;20361;-23
2022/10/23 06:40:50;;;;;;;;;;;17.30;99.90;;;;;;5111372;28;19951;-23
2022/10/23 06:43:16;;;;;;;;;;;17.30;99.90;;;;;;5111098;28;19916;-23
2022/10/23 06:45:41;;;;;;;;;;;17.30;99.90;;;;;;5111356;28;20374;-23
2022/10/23 06:48:07;;;;;;;;;;;17.30;99.90;;;;;;5111568;28;19908;-23
2022/10/23 06:50:32;;;;;;;;;;;17.30;99.90;;;;;;5109842;28;19999;-23
2022/10/23 06:52:58;;;;;;;;;;;17.30;99.90;;;;;;5109780;28;19908;-23
2022/10/23 06:55:23;;;;;;;;;;;17.30;99.90;;;;;;5109814;28;19911;-23
2022/10/23 06:57:49;;;;;;;;;;;17.30;99.90;;;;;;5111214;28;20404;-23
2022/10/23 07:00:15;;;;;;;;;;;17.30;99.90;;;;;;5111165;28;20395;-23
2022/10/23 07:02:40;;;;;;;;;;;17.30;99.90;;;;;;5110801;28;20383;-24
2022/10/23 07:05:06;;;;;;;;;;;17.30;99.90;;;;;;5111637;28;20345;-23
2022/10/23 07:07:31;;;;;;;;;;;17.30;99.90;;;;;;5113879;28;19912;-24
2022/10/23 07:09:57;;;;;;;;;;;17.30;99.90;;;;;;5115021;28;19911;-24
2022/10/23 07:12:22;;;;;;;;;;;17.30;99.90;;;;;;5114853;28;19973;-24
2022/10/23 07:14:48;;;;;;;;;;;17.10;99.90;;;;;;5114756;28;19985;-24
2022/10/23 07:17:13;;;;;;;;;;;16.80;99.90;;;;;;5114855;28;19912;-24
2022/10/23 07:19:39;;;;;;;;;;;16.70;99.90;;;;;;5114942;28;20421;-23
2022/10/23 07:22:04;;;;;;;;;;;16.70;99.90;;;;;;5114854;28;19908;-24
2022/10/23 07:24:35;;;;;;;;;;;16.80;99.90;;;;;;5115002;28;19912;-24
2022/10/23 07:27:01;;;;;;;;;;;16.90;99.90;;;;;;5114866;28;19961;-24
2022/10/23 07:29:27;;;;;;;;;;;16.90;99.90;;;;;;5114761;28;19912;-24
2022/10/23 07:31:52;;;;;;;;;;;17.00;99.90;;;;;;5115159;28;19963;-24
2022/10/23 07:34:18;;;;;;;;;;;17.10;99.90;;;;;;5114526;28;19912;-24
2022/10/23 07:36:43;;;;;;;;;;;17.10;99.90;;;;;;5113247;28;19968;-24
2022/10/23 07:39:09;;;;;;;;;;;17.10;99.90;;;;;;5114484;28;20089;-24
2022/10/23 07:41:34;;;;;;;;;;;17.20;99.90;;;;;;5114418;28;19912;-23
2022/10/23 07:44:00;;;;;;;;;;;17.20;99.90;;;;;;5114042;28;20284;-23
2022/10/23 07:46:25;;;;;;;;;;;17.20;99.90;;;;;;5114425;28;20044;-24
2022/10/23 07:48:51;;;;;;;;;;;17.20;99.90;;;;;;5114351;28;19950;-23
2022/10/23 07:51:16;;;;;;;;;;;17.20;99.90;;;;;;5114230;28;19908;-23
2022/10/23 07:53:42;;;;;;;;;;;17.30;99.90;;;;;;5113782;28;19912;-24
2022/10/23 07:56:12;;;;;;;;;;;17.30;99.90;;;;;;5114105;28;19961;-24
2022/10/23 07:58:38;;;;;;;;;;;17.30;99.90;;;;;;5114251;28;19954;-23
2022/10/23 08:01:10;;;;;;;;;;;17.30;99.90;;;;;;5114141;28;20376;-23
2022/10/23 08:03:35;;;;;;;;;;;17.30;99.90;;;;;;5118419;28;19953;-24
2022/10/23 08:06:01;;;;;;;;;;;17.30;99.90;;;;;;5117176;28;19916;-24
2022/10/23 08:08:26;;;;;;;;;;;17.40;99.90;;;;;;5114136;28;20393;-24
2022/10/23 08:10:52;;;;;;;;;;;17.40;99.90;;;;;;5114214;28;19943;-24
2022/10/23 08:13:21;;;;;;;;;;;17.30;99.90;;;;;;5113495;28;19908;-24
2022/10/23 08:15:48;;;;;;;;;;;17.10;99.90;;;;;;5114129;28;20327;-31
2022/10/23 08:18:13;;;;;;;;;;;16.90;99.90;;;;;;5113474;28;20273;-24
2022/10/23 08:20:40;;;;;;;;;;;16.80;99.90;;;;;;5113776;28;19907;-24
2022/10/23 08:23:05;;;;;;;;;;;16.70;99.90;;;;;;5113135;28;19999;-24
2022/10/23 08:25:31;;;;;;;;;;;16.60;99.90;;;;;;5113695;28;20002;-24
2022/10/23 08:27:56;;;;;;;;;;;16.70;99.90;;;;;;5114310;28;19908;-24
2022/10/23 08:30:22;;;;;;;;;;;16.80;99.90;;;;;;5113862;28;20335;-23
2022/10/23 08:32:47;;;;;;;;;;;17.00;99.90;;;;;;5113598;28;19912;-23
2022/10/23 08:35:13;;;;;;;;;;;17.10;99.90;;;;;;5114298;28;19922;-24
2022/10/23 08:37:38;;;;;;;;;;;17.20;99.90;;;;;;5113696;28;19914;-23
2022/10/23 08:40:04;;;;;;;;;;;17.30;99.90;;;;;;5113758;28;19954;-23
2022/10/23 08:42:30;;;;;;;;;;;17.40;99.90;;;;;;5113484;28;19951;-24
2022/10/23 08:45:15;;;;;;;;;;;17.50;99.90;;;;;;5113420;28;19907;-24
2022/10/23 08:47:44;;;;;;;;;;;17.50;99.90;;;;;;5112915;28;19907;-24
2022/10/23 08:50:19;;;;;;;;;;;17.50;99.90;;;;;;5113234;28;19908;-23
2022/10/23 08:52:51;;;;;;;;;;;17.60;99.90;;;;;;5112653;28;19918;-24
2022/10/23 08:55:26;;;;;;;;;;;17.60;99.90;;;;;;5113241;28;19918;-24
2022/10/23 08:57:57;;;;;;;;;;;17.70;99.90;;;;;;5111728;28;20269;-24
2022/10/23 09:00:23;;;;;;;;;;;17.70;99.90;;;;;;5113168;28;20317;-23
2022/10/23 09:02:49;;;;;;;;;;;17.80;99.90;;;;;;5112611;28;19966;-24
2022/10/23 09:05:18;;;;;;;;;;;17.80;99.90;;;;;;5112872;28;19912;-23
2022/10/23 09:07:49;;;;;;;;;;;17.80;99.90;;;;;;5112792;28;19916;-24
2022/10/23 09:10:14;;;;;;;;;;;17.80;99.90;;;;;;5112736;28;19972;-24
2022/10/23 09:12:40;;;;;;;;;;;17.90;99.90;;;;;;5111139;28;19912;-24
2022/10/23 09:15:20;;;;;;;;;;;17.80;99.90;;;;;;5112892;28;19912;-24
2022/10/23 09:17:46;;;;;;;;;;;17.90;99.90;;;;;;5112659;28;20006;-24
2022/10/23 09:20:21;;;;;;;;;;;17.90;99.90;;;;;;5112603;28;19915;-24
2022/10/23 09:22:47;;;;;;;;;;;18.00;99.90;;;;;;5112253;28;19912;-24
2022/10/23 09:25:17;;;;;;;;;;;18.00;99.90;;;;;;5112578;28;19915;-24
2022/10/23 09:27:47;;;;;;;;;;;18.00;99.90;;;;;;5112233;28;20284;-24
2022/10/23 09:30:23;;;;;;;;;;;18.00;99.90;;;;;;5111773;28;19908;-24
2022/10/23 09:32:49;;;;;;;;;;;18.10;99.90;;;;;;5112474;28;20292;-24
2022/10/23 09:35:21;;;;;;;;;;;18.10;99.90;;;;;;5112219;28;20380;-24
2022/10/23 09:37:47;;;;;;;;;;;18.10;99.90;;;;;;5111842;28;20337;-24
2022/10/23 09:40:15;;;;;;;;;;;18.20;99.90;;;;;;5112109;28;19948;-24
2022/10/23 09:43:00;;;;;;;;;;;18.20;99.90;;;;;;5111922;28;19965;-24
2022/10/23 09:45:28;;;;;;;;;;;18.20;99.90;;;;;;5112383;28;19956;-24
2022/10/23 09:48:13;;;;;;;;;;;18.20;99.90;;;;;;5112214;28;19912;-24
2022/10/23 09:50:49;;;;;;;;;;;18.30;99.90;;;;;;5112039;28;19943;-24
2022/10/23 09:53:22;;;;;;;;;;;18.30;99.90;;;;;;5111576;28;19998;-24
2022/10/23 09:55:54;;;;;;;;;;;18.40;99.90;;;;;;5112127;28;19962;-24
2022/10/23 09:58:23;;;;;;;;;;;18.40;99.90;;;;;;5112000;28;20314;-24
2022/10/23 10:00:52;;;;;;;;;;;18.40;99.90;;;;;;5112238;28;19908;-24
2022/10/23 10:03:21;;;;;;;;;;;18.40;99.90;;;;;;5111612;28;19958;-24
2022/10/23 10:06:13;;;;;;;;;;;18.40;99.90;;;;;;5111895;28;20007;-24
2022/10/23 10:08:43;;;;;;;;;;;18.40;99.90;;;;;;5108646;28;20284;-24
2022/10/23 10:11:31;;;;;;;;;;;18.40;99.90;;;;;;5111680;28;20392;-24
2022/10/23 10:14:06;;;;;;;;;;;18.40;99.90;;;;;;5102567;28;19916;-24
2022/10/23 10:16:35;;;;;;;;;;;18.40;99.90;;;;;;5111728;28;19916;-24
2022/10/23 10:19:00;;;;;;;;;;;18.40;99.90;;;;;;5111694;28;19908;-24
2022/10/23 10:21:33;;;;;;;;;;;18.40;99.90;;;;;;5111592;28;20016;-24
2022/10/23 10:24:04;;;;;;;;;;;18.40;99.90;;;;;;5111003;28;19967;-24
2022/10/23 10:26:36;;;;;;;;;;;18.40;99.90;;;;;;5111549;28;20356;-24
2022/10/23 10:29:05;;;;;;;;;;;18.40;99.90;;;;;;5111649;28;19907;-24
2022/10/23 10:31:49;;;;;;;;;;;18.40;99.90;;;;;;5111450;28;19963;-24
2022/10/23 10:34:33;;;;;;;;;;;18.40;99.90;;;;;;5110907;28;20519;-24
2022/10/23 10:37:10;;;;;;;;;;;18.40;99.90;;;;;;5111563;28;19976;-24
2022/10/23 10:39:46;;;;;;;;;;;18.40;99.90;;;;;;5111480;28;19961;-23
2022/10/23 10:42:32;;;;;;;;;;;18.40;99.90;;;;;;5113474;28;20268;-24
2022/10/23 10:44:58;;;;;;;;;;;18.40;99.90;;;;;;5114856;28;19912;-24
2022/10/23 10:47:24;;;;;;;;;;;18.40;99.90;;;;;;5114879;28;19919;-24
2022/10/23 10:50:06;;;;;;;;;;;18.40;99.90;;;;;;5116259;28;19908;-24
2022/10/23 10:52:38;;;;;;;;;;;18.40;99.90;;;;;;5115109;28;19908;-24
2022/10/23 10:55:03;;;;;;;;;;;18.40;99.90;;;;;;5115442;28;20452;-24
2022/10/23 10:57:37;;;;;;;;;;;18.50;99.90;;;;;;5114075;28;20002;-24
2022/10/23 11:00:05;;;;;;;;;;;18.40;99.90;;;;;;5115307;28;20419;-24
2022/10/23 11:02:34;;;;;;;;;;;18.40;99.90;;;;;;5114764;28;19958;-24
2022/10/23 11:05:00;;;;;;;;;;;18.40;99.90;;;;;;5115305;28;19923;-24
2022/10/23 11:07:28;;;;;;;;;;;18.30;99.90;;;;;;5115199;28;19908;-24
2022/10/23 11:09:54;;;;;;;;;;;18.40;99.90;;;;;;5115073;28;20015;-24
2022/10/23 11:12:22;;;;;;;;;;;18.30;99.90;;;;;;5115101;28;20006;-24
2022/10/23 11:14:47;;;;;;;;;;;18.30;99.90;;;;;;5115358;28;19912;-24
2022/10/23 11:17:16;;;;;;;;;;;18.30;99.90;;;;;;5114972;28;19923;-24
2022/10/23 11:19:47;;;;;;;;;;;18.20;99.90;;;;;;5114981;28;19907;-24
2022/10/23 11:22:25;;;;;;;;;;;18.20;99.90;;;;;;5115800;28;19912;-23
2022/10/23 11:24:56;;;;;;;;;;;18.20;99.90;;;;;;5114895;28;19912;-24
2022/10/23 11:27:26;;;;;;;;;;;18.20;99.90;;;;;;5115458;28;20376;-24
2022/10/23 11:30:10;;;;;;;;;;;18.20;99.90;;;;;;5114782;28;19953;-24
2022/10/23 11:32:51;;;;;;;;;;;18.20;99.90;;;;;;5114505;28;19919;-24
2022/10/23 11:35:22;;;;;;;;;;;18.20;99.90;;;;;;5115272;28;19994;-24
2022/10/23 11:38:06;;;;;;;;;;;18.20;99.90;;;;;;5114970;28;19947;-24
2022/10/23 11:40:32;;;;;;;;;;;18.20;99.90;;;;;;5114874;28;19911;-24
2022/10/23 11:42:57;;;;;;;;;;;18.20;99.90;;;;;;5114361;28;20326;-24
2022/10/23 11:45:26;;;;;;;;;;;18.10;99.90;;;;;;5114543;28;19912;-24
2022/10/23 11:48:04;;;;;;;;;;;18.10;99.90;;;;;;5113228;28;19915;-24
2022/10/23 11:50:48;;;;;;;;;;;18.20;99.90;;;;;;5114420;28;20035;-24
2022/10/23 11:53:22;;;;;;;;;;;18.10;99.90;;;;;;5113532;28;19939;-24
2022/10/23 11:55:59;;;;;;;;;;;18.10;99.90;;;;;;5114510;28;19961;-24
2022/10/23 11:58:30;;;;;;;;;;;18.10;99.90;;;;;;5114187;28;19912;-23
2022/10/23 12:01:14;;;;;;;;;;;18.10;99.90;;;;;;5114328;28;19999;-24
2022/10/23 12:03:46;;;;;;;;;;;18.20;99.90;;;;;;5113906;28;19933;-24
2022/10/23 12:06:20;;;;;;;;;;;18.10;99.90;;;;;;5114427;28;19973;-24
2022/10/23 12:08:49;;;;;;;;;;;18.10;99.90;;;;;;5114530;28;20376;-24
2022/10/23 12:11:38;;;;;;;;;;;18.20;99.90;;;;;;5114011;28;20308;-24
2022/10/23 12:14:23;;;;;;;;;;;18.10;99.90;;;;;;5113555;28;19916;-24
2022/10/23 12:16:49;;;;;;;;;;;18.20;99.90;;;;;;5113694;28;19908;-24
2022/10/23 12:19:17;;;;;;;;;;;18.10;99.90;;;;;;5113719;28;19918;-24
2022/10/23 12:21:43;;;;;;;;;;;18.20;99.90;;;;;;5113614;28;19957;-24
2022/10/23 12:24:22;;;;;;;;;;;18.20;99.90;;;;;;5113346;28;20295;-24
2022/10/23 12:26:53;;;;;;;;;;;18.20;99.90;;;;;;5113622;28;19908;-24
2022/10/23 12:29:19;;;;;;;;;;;18.10;99.90;;;;;;5113745;28;19919;-24
2022/10/23 12:31:51;;;;;;;;;;;18.10;99.90;;;;;;5113270;28;20300;-24
2022/10/23 12:34:29;;;;;;;;;;;18.10;99.90;;;;;;5113044;28;19912;-24
2022/10/23 12:37:12;;;;;;;;;;;18.10;99.90;;;;;;5113595;28;19916;-24
2022/10/23 12:39:39;;;;;;;;;;;18.10;99.90;;;;;;5113616;28;19907;-24
2022/10/23 12:42:24;;;;;;;;;;;18.10;99.90;;;;;;5113263;28;19924;-24
2022/10/23 12:45:17;;;;;;;;;;;18.20;99.90;;;;;;5112457;28;19911;-24
2022/10/23 12:47:43;;;;;;;;;;;18.20;99.90;;;;;;5110149;28;19914;-24
2022/10/23 12:50:23;;;;;;;;;;;18.20;99.90;;;;;;5113096;28;19908;-24
2022/10/23 12:52:53;;;;;;;;;;;18.20;99.90;;;;;;5112810;28;19912;-24
2022/10/23 12:55:19;;;;;;;;;;;18.20;99.90;;;;;;5113189;28;19911;-24
2022/10/23 12:57:45;;;;;;;;;;;18.20;99.90;;;;;;5113157;28;19907;-24
2022/10/23 13:00:15;;;;;;;;;;;18.20;99.90;;;;;;5112948;28;19918;-24
2022/10/23 13:02:40;;;;;;;;;;;18.20;99.90;;;;;;5112621;28;20265;-24
2022/10/23 13:05:07;;;;;;;;;;;18.30;99.90;;;;;;5112519;28;19918;-24
2022/10/23 13:07:35;;;;;;;;;;;18.30;99.90;;;;;;5112988;28;20400;-24
2022/10/23 13:10:02;;;;;;;;;;;18.30;99.90;;;;;;5112957;28;19908;-24
2022/10/23 13:12:32;;;;;;;;;;;18.40;99.90;;;;;;5112527;28;20493;-24
2022/10/23 13:15:06;;;;;;;;;;;18.40;99.90;;;;;;5112435;28;20490;-24
2022/10/23 13:17:36;;;;;;;;;;;18.40;99.90;;;;;;5112804;28;19918;-24
2022/10/23 13:20:28;;;;;;;;;;;18.40;99.90;;;;;;5112812;28;19995;-24
2022/10/23 13:22:54;;;;;;;;;;;18.40;99.90;;;;;;5109558;28;20288;-24
2022/10/23 13:25:19;;;;;;;;;;;18.50;99.90;;;;;;5111213;28;19907;-24
2022/10/23 13:27:45;;;;;;;;;;;18.50;99.90;;;;;;5112543;28;20368;-24
2022/10/23 13:30:29;;;;;;;;;;;18.50;99.90;;;;;;5112622;28;19908;-49
2022/10/23 13:32:55;;;;;;;;;;;18.60;99.90;;;;;;5111719;28;20044;-24
2022/10/23 13:35:21;;;;;;;;;;;18.60;99.90;;;;;;5111630;28;20002;-24
2022/10/23 13:37:47;;;;;;;;;;;18.60;99.90;;;;;;5112048;28;20143;-24
2022/10/23 13:40:31;;;;;;;;;;;18.50;99.90;;;;;;5112266;28;19912;-24
2022/10/23 13:42:57;;;;;;;;;;;18.50;99.90;;;;;;5111856;28;19998;-24
2022/10/23 13:45:25;;;;;;;;;;;18.60;99.90;;;;;;5112276;28;19930;-24
2022/10/23 13:47:51;;;;;;;;;;;18.50;99.90;;;;;;5112177;28;19914;-24
2022/10/23 13:50:17;;;;;;;;;;;18.50;99.90;;;;;;5112456;28;19911;-24
2022/10/23 13:52:42;;;;;;;;;;;18.50;99.90;;;;;;5110250;28;20066;-24
2022/10/23 13:55:18;;;;;;;;;;;18.50;99.90;;;;;;5111924;28;20013;-24
2022/10/23 13:57:43;;;;;;;;;;;18.50;99.90;;;;;;5112048;28;20137;-24
2022/10/23 14:00:09;;;;;;;;;;;18.50;99.90;;;;;;5112054;28;20015;-24
2022/10/23 14:02:34;;;;;;;;;;;18.50;99.90;;;;;;5111357;28;19911;-24
2022/10/23 14:05:00;;;;;;;;;;;18.50;99.90;;;;;;5111754;28;20380;-24
2022/10/23 14:07:25;;;;;;;;;;;18.50;99.90;;;;;;5111796;28;19961;-24
2022/10/23 14:09:51;;;;;;;;;;;18.50;99.90;;;;;;5111868;28;19908;-24
2022/10/23 14:12:16;;;;;;;;;;;18.50;99.90;;;;;;5111832;28;19907;-24
2022/10/23 14:14:42;;;;;;;;;;;18.50;99.90;;;;;;5111827;28;19919;-23
2022/10/23 14:17:07;;;;;;;;;;;18.50;99.90;;;;;;5111445;28;19907;-24
2022/10/23 14:19:33;;;;;;;;;;;18.50;99.90;;;;;;5111869;28;19908;-24
2022/10/23 14:21:59;;;;;;;;;;;18.50;99.90;;;;;;5111742;28;20433;-24
2022/10/23 14:24:24;;;;;;;;;;;18.50;99.90;;;;;;5111274;28;19964;-24
2022/10/23 14:26:50;;;;;;;;;;;18.40;99.90;;;;;;5110280;28;20360;-24